createdAt,value
2018-06-21T00:00:07.965Z,1011.52
2018-06-21T00:01:07.909Z,1011.55
2018-06-21T00:02:07.848Z,1011.50
2018-06-21T00:03:07.791Z,1011.53
2018-06-21T00:04:07.735Z,1011.49
2018-06-21T00:05:07.677Z,1011.49
2018-06-21T00:06:07.624Z,1011.50
2018-06-21T00:07:07.563Z,1011.46
2018-06-21T00:08:07.503Z,1011.50
2018-06-21T00:09:07.451Z,1011.45
2018-06-21T00:10:07.393Z,1011.43
2018-06-21T00:11:07.335Z,1011.41
2018-06-21T00:12:07.274Z,1011.39
2018-06-21T00:13:07.212Z,1011.41
2018-06-21T00:14:07.157Z,1011.39
2018-06-21T00:15:07.100Z,1011.36
2018-06-21T00:16:07.041Z,1011.34
2018-06-21T00:17:06.982Z,1011.33
2018-06-21T00:18:06.936Z,1011.36
2018-06-21T00:19:06.866Z,1011.33
2018-06-21T00:20:06.818Z,1011.33
2018-06-21T00:21:06.755Z,1011.32
2018-06-21T00:22:06.706Z,1011.28
2018-06-21T00:23:06.638Z,1011.26
2018-06-21T00:24:06.578Z,1011.30
2018-06-21T00:25:06.525Z,1011.25
2018-06-21T00:26:06.462Z,1011.25
2018-06-21T00:27:06.404Z,1011.27
2018-06-21T00:28:06.348Z,1011.26
2018-06-21T00:29:06.295Z,1011.25
2018-06-21T00:30:06.232Z,1011.27
2018-06-21T00:31:06.176Z,1011.24
2018-06-21T00:32:06.119Z,1011.27
2018-06-21T00:33:06.061Z,1011.24
2018-06-21T00:34:06.002Z,1011.17
2018-06-21T00:35:05.944Z,1011.17
2018-06-21T00:36:05.899Z,1011.17
2018-06-21T00:37:05.823Z,1011.16
2018-06-21T00:38:05.769Z,1011.14
2018-06-21T00:39:05.722Z,1011.12
2018-06-21T00:40:05.653Z,1011.11
2018-06-21T00:41:05.599Z,1011.12
2018-06-21T00:42:05.538Z,1011.12
2018-06-21T00:43:05.494Z,1011.10
2018-06-21T00:44:05.419Z,1011.10
2018-06-21T00:45:05.361Z,1011.08
2018-06-21T00:46:05.301Z,1011.10
2018-06-21T00:47:05.245Z,1011.09
2018-06-21T00:48:05.188Z,1011.07
2018-06-21T00:49:05.127Z,1011.07
2018-06-21T00:50:05.071Z,1011.05
2018-06-21T00:51:05.012Z,1011.02
2018-06-21T00:52:05.018Z,1010.97
2018-06-21T00:53:04.899Z,1010.98
2018-06-21T00:54:04.841Z,1010.99
2018-06-21T00:55:04.779Z,1010.96
2018-06-21T00:56:04.725Z,1010.94
2018-06-21T00:57:04.663Z,1010.94
2018-06-21T00:58:04.604Z,1010.97
2018-06-21T00:59:04.548Z,1010.94
2018-06-21T01:00:04.489Z,1010.92
2018-06-21T01:01:04.428Z,1010.85
2018-06-21T01:02:04.376Z,1010.90
2018-06-21T01:03:04.312Z,1010.85
2018-06-21T01:04:04.254Z,1010.85
2018-06-21T01:05:04.204Z,1010.89
2018-06-21T01:06:04.137Z,1010.85
2018-06-21T01:07:04.080Z,1010.86
2018-06-21T01:08:04.023Z,1010.85
2018-06-21T01:09:03.973Z,1010.82
2018-06-21T01:10:03.909Z,1010.86
2018-06-21T01:11:03.848Z,1010.84
2018-06-21T01:12:03.788Z,1010.83
2018-06-21T01:13:03.756Z,1010.82
2018-06-21T01:14:03.675Z,1010.82
2018-06-21T01:15:03.616Z,1010.81
2018-06-21T01:16:03.556Z,1010.77
2018-06-21T01:17:03.505Z,1010.79
2018-06-21T01:18:03.441Z,1010.76
2018-06-21T01:19:03.378Z,1010.76
2018-06-21T01:20:03.321Z,1010.74
2018-06-21T01:21:03.263Z,1010.72
2018-06-21T01:22:03.204Z,1010.71
2018-06-21T01:23:03.142Z,1010.68
2018-06-21T01:24:03.089Z,1010.67
2018-06-21T01:25:03.031Z,1010.67
2018-06-21T01:26:02.979Z,1010.62
2018-06-21T01:27:02.911Z,1010.58
2018-06-21T01:28:02.853Z,1010.60
2018-06-21T01:29:02.795Z,1010.58
2018-06-21T01:30:02.739Z,1010.57
2018-06-21T01:31:02.685Z,1010.55
2018-06-21T01:32:02.621Z,1010.53
2018-06-21T01:33:02.580Z,1010.51
2018-06-21T01:34:02.505Z,1010.54
2018-06-21T01:35:02.443Z,1010.52
2018-06-21T01:36:02.381Z,1010.51
2018-06-21T01:37:02.332Z,1010.55
2018-06-21T01:38:02.287Z,1010.49
2018-06-21T01:39:02.206Z,1010.47
2018-06-21T01:40:02.164Z,1010.49
2018-06-21T01:41:02.101Z,1010.45
2018-06-21T01:42:02.041Z,1010.47
2018-06-21T01:43:01.980Z,1010.43
2018-06-21T01:44:01.927Z,1010.44
2018-06-21T01:45:01.875Z,1010.42
2018-06-21T01:46:01.795Z,1010.42
2018-06-21T01:47:01.740Z,1010.41
2018-06-21T01:48:01.681Z,1010.41
2018-06-21T01:49:01.672Z,1010.38
2018-06-21T01:50:01.576Z,1010.43
2018-06-21T01:51:01.508Z,1010.42
2018-06-21T01:52:01.452Z,1010.40
2018-06-21T01:53:01.388Z,1010.39
2018-06-21T01:54:01.329Z,1010.37
2018-06-21T01:55:01.279Z,1010.38
2018-06-21T01:56:01.211Z,1010.38
2018-06-21T01:57:01.184Z,1010.39
2018-06-21T01:58:01.096Z,1010.33
2018-06-21T01:59:01.039Z,1010.40
2018-06-21T02:00:00.979Z,1010.39
2018-06-21T02:01:00.944Z,1010.37
2018-06-21T02:02:00.859Z,1010.34
2018-06-21T02:03:00.810Z,1010.31
2018-06-21T02:04:00.742Z,1010.32
2018-06-21T02:05:00.712Z,1010.32
2018-06-21T02:06:00.635Z,1010.31
2018-06-21T02:07:00.569Z,1010.34
2018-06-21T02:08:00.517Z,1010.29
2018-06-21T02:09:00.447Z,1010.30
2018-06-21T02:10:00.392Z,1010.30
2018-06-21T02:11:00.328Z,1010.28
2018-06-21T02:12:00.283Z,1010.25
2018-06-21T02:13:00.215Z,1010.24
2018-06-21T02:14:00.165Z,1010.21
2018-06-21T02:15:00.098Z,1010.24
2018-06-21T02:16:00.042Z,1010.23
2018-06-21T02:16:59.980Z,1010.21
2018-06-21T02:17:59.923Z,1010.23
2018-06-21T02:18:59.858Z,1010.29
2018-06-21T02:19:59.826Z,1010.26
2018-06-21T02:20:59.744Z,1010.26
2018-06-21T02:21:59.684Z,1010.26
2018-06-21T02:22:59.628Z,1010.30
2018-06-21T02:23:59.563Z,1010.27
2018-06-21T02:24:59.504Z,1010.24
2018-06-21T02:25:59.447Z,1010.25
2018-06-21T02:26:59.415Z,1010.22
2018-06-21T02:27:59.333Z,1010.20
2018-06-21T02:28:59.266Z,1010.19
2018-06-21T02:29:59.223Z,1010.17
2018-06-21T02:30:59.154Z,1010.14
2018-06-21T02:31:59.099Z,1010.19
2018-06-21T02:32:59.042Z,1010.17
2018-06-21T02:33:58.992Z,1010.18
2018-06-21T02:34:58.923Z,1010.12
2018-06-21T02:35:58.864Z,1010.11
2018-06-21T02:36:58.801Z,1010.09
2018-06-21T02:37:58.744Z,1010.03
2018-06-21T02:38:58.687Z,1010.07
2018-06-21T02:39:58.624Z,1010.01
2018-06-21T02:40:58.566Z,1010.01
2018-06-21T02:41:58.527Z,1010.01
2018-06-21T02:42:58.445Z,1009.99
2018-06-21T02:43:58.386Z,1009.98
2018-06-21T02:44:58.333Z,1010.00
2018-06-21T02:45:58.270Z,1009.98
2018-06-21T02:46:58.210Z,1009.98
2018-06-21T02:47:58.172Z,1009.93
2018-06-21T02:48:58.091Z,1009.88
2018-06-21T02:49:58.033Z,1009.91
2018-06-21T02:50:57.971Z,1009.88
2018-06-21T02:51:57.925Z,1009.89
2018-06-21T02:52:57.859Z,1009.82
2018-06-21T02:53:57.796Z,1009.81
2018-06-21T02:54:57.764Z,1009.84
2018-06-21T02:55:57.687Z,1009.76
2018-06-21T02:56:57.617Z,1009.76
2018-06-21T02:57:57.569Z,1009.75
2018-06-21T02:58:57.507Z,1009.71
2018-06-21T02:59:57.448Z,1009.67
2018-06-21T03:00:57.387Z,1009.68
2018-06-21T03:01:57.328Z,1009.66
2018-06-21T03:02:57.272Z,1009.66
2018-06-21T03:03:57.262Z,1009.63
2018-06-21T03:04:57.150Z,1009.64
2018-06-21T03:05:57.089Z,1009.64
2018-06-21T03:06:57.033Z,1009.68
2018-06-21T03:07:56.970Z,1009.65
2018-06-21T03:08:56.912Z,1009.63
2018-06-21T03:09:56.865Z,1009.63
2018-06-21T03:10:56.790Z,1009.63
2018-06-21T03:11:56.734Z,1009.67
2018-06-21T03:12:56.685Z,1009.69
2018-06-21T03:13:56.690Z,1009.67
2018-06-21T03:14:56.590Z,1009.61
2018-06-21T03:15:56.499Z,1009.59
2018-06-21T03:16:56.438Z,1009.56
2018-06-21T03:17:56.452Z,1009.58
2018-06-21T03:18:57.071Z,1009.59
2018-06-21T03:19:56.262Z,1009.55
2018-06-21T03:20:56.200Z,1009.54
2018-06-21T03:21:56.169Z,1009.56
2018-06-21T03:22:56.081Z,1009.56
2018-06-21T03:23:56.024Z,1009.56
2018-06-21T03:24:55.965Z,1009.51
2018-06-21T03:25:55.915Z,1009.50
2018-06-21T03:26:55.851Z,1009.52
2018-06-21T03:27:55.799Z,1009.52
2018-06-21T03:28:55.721Z,1009.51
2018-06-21T03:29:55.672Z,1009.48
2018-06-21T03:30:55.610Z,1009.49
2018-06-21T03:31:55.554Z,1009.42
2018-06-21T03:32:55.505Z,1009.42
2018-06-21T03:33:55.434Z,1009.38
2018-06-21T03:34:55.368Z,1009.39
2018-06-21T03:35:55.312Z,1009.39
2018-06-21T03:36:55.255Z,1009.39
2018-06-21T03:37:55.197Z,1009.39
2018-06-21T03:38:55.138Z,1009.42
2018-06-21T03:39:55.087Z,1009.42
2018-06-21T03:40:55.014Z,1009.40
2018-06-21T03:41:54.953Z,1009.38
2018-06-21T03:42:54.906Z,1009.49
2018-06-21T03:43:54.843Z,1009.42
2018-06-21T03:44:54.786Z,1009.44
2018-06-21T03:45:54.721Z,1009.46
2018-06-21T03:46:54.665Z,1009.43
2018-06-21T03:47:54.603Z,1009.41
2018-06-21T03:48:54.548Z,1009.35
2018-06-21T03:49:54.487Z,1009.35
2018-06-21T03:50:54.435Z,1009.33
2018-06-21T03:51:54.370Z,1009.35
2018-06-21T03:52:54.306Z,1009.34
2018-06-21T03:53:54.247Z,1009.36
2018-06-21T03:54:54.192Z,1009.36
2018-06-21T03:55:54.129Z,1009.30
2018-06-21T03:56:54.100Z,1009.31
2018-06-21T03:57:54.018Z,1009.29
2018-06-21T03:58:53.955Z,1009.30
2018-06-21T03:59:53.897Z,1009.29
2018-06-21T04:00:53.833Z,1009.30
2018-06-21T04:01:53.773Z,1009.27
2018-06-21T04:02:53.724Z,1009.26
2018-06-21T04:03:53.660Z,1009.28
2018-06-21T04:04:53.601Z,1009.25
2018-06-21T04:05:53.534Z,1009.23
2018-06-21T04:06:53.482Z,1009.25
2018-06-21T04:07:53.417Z,1009.24
2018-06-21T04:08:53.362Z,1009.24
2018-06-21T04:09:53.308Z,1009.20
2018-06-21T04:10:53.244Z,1009.21
2018-06-21T04:11:53.187Z,1009.19
2018-06-21T04:12:53.130Z,1009.17
2018-06-21T04:13:53.067Z,1009.21
2018-06-21T04:14:53.011Z,1009.21
2018-06-21T04:15:52.947Z,1009.19
2018-06-21T04:16:52.888Z,1009.11
2018-06-21T04:17:52.836Z,1009.09
2018-06-21T04:18:52.771Z,1009.04
2018-06-21T04:19:52.730Z,1009.06
2018-06-21T04:20:52.657Z,1009.04
2018-06-21T04:21:52.599Z,1009.05
2018-06-21T04:22:52.540Z,1009.03
2018-06-21T04:23:52.489Z,1009.07
2018-06-21T04:24:52.412Z,1009.08
2018-06-21T04:25:52.361Z,1009.07
2018-06-21T04:26:52.301Z,1009.07
2018-06-21T04:27:52.246Z,1009.03
2018-06-21T04:28:52.183Z,1009.06
2018-06-21T04:29:52.125Z,1009.06
2018-06-21T04:30:52.063Z,1009.04
2018-06-21T04:31:52.013Z,1009.07
2018-06-21T04:32:51.942Z,1009.03
2018-06-21T04:33:51.883Z,1009.03
2018-06-21T04:34:51.828Z,1009.04
2018-06-21T04:35:51.773Z,1009.02
2018-06-21T04:36:51.707Z,1009.04
2018-06-21T04:37:51.676Z,1009.02
2018-06-21T04:38:51.594Z,1008.99
2018-06-21T04:39:51.530Z,1008.98
2018-06-21T04:40:51.477Z,1009.01
2018-06-21T04:41:51.432Z,1008.94
2018-06-21T04:42:51.359Z,1008.97
2018-06-21T04:43:51.304Z,1008.95
2018-06-21T04:44:51.239Z,1008.99
2018-06-21T04:45:51.231Z,1008.96
2018-06-21T04:46:51.136Z,1008.97
2018-06-21T04:47:51.071Z,1009.02
2018-06-21T04:48:51.599Z,1009.00
2018-06-21T04:49:50.952Z,1008.98
2018-06-21T04:50:50.901Z,1008.97
2018-06-21T04:51:50.841Z,1008.97
2018-06-21T04:52:50.775Z,1008.98
2018-06-21T04:53:50.719Z,1008.97
2018-06-21T04:54:50.660Z,1008.95
2018-06-21T04:55:50.619Z,1008.90
2018-06-21T04:56:50.546Z,1008.91
2018-06-21T04:57:50.486Z,1008.86
2018-06-21T04:58:50.424Z,1008.87
2018-06-21T04:59:50.365Z,1008.89
2018-06-21T05:00:50.313Z,1008.85
2018-06-21T05:01:50.290Z,1008.84
2018-06-21T05:02:50.196Z,1008.88
2018-06-21T05:03:50.132Z,1008.89
2018-06-21T05:04:50.088Z,1008.91
2018-06-21T05:05:50.016Z,1008.95
2018-06-21T05:06:49.961Z,1009.00
2018-06-21T05:07:49.909Z,1009.06
2018-06-21T05:08:49.842Z,1009.14
2018-06-21T05:09:49.785Z,1009.04
2018-06-21T05:10:49.729Z,1009.16
2018-06-21T05:11:49.661Z,1009.16
2018-06-21T05:12:49.631Z,1009.10
2018-06-21T05:13:49.551Z,1009.01
2018-06-21T05:14:49.495Z,1008.94
2018-06-21T05:15:49.433Z,1008.91
2018-06-21T05:16:49.384Z,1008.96
2018-06-21T05:17:49.324Z,1008.87
2018-06-21T05:18:49.269Z,1008.94
2018-06-21T05:19:49.207Z,1008.94
2018-06-21T05:20:49.147Z,1008.98
2018-06-21T05:21:49.091Z,1009.10
2018-06-21T05:22:49.030Z,1008.94
2018-06-21T05:23:48.972Z,1009.02
2018-06-21T05:24:48.918Z,1008.92
2018-06-21T05:25:49.604Z,1008.98
2018-06-21T05:26:48.820Z,1008.91
2018-06-21T05:27:48.757Z,1008.89
2018-06-21T05:28:48.685Z,1008.92
2018-06-21T05:29:48.632Z,1008.82
2018-06-21T05:30:48.564Z,1008.83
2018-06-21T05:31:48.510Z,1008.73
2018-06-21T05:32:48.451Z,1008.70
2018-06-21T05:33:48.397Z,1008.73
2018-06-21T05:34:48.348Z,1008.73
2018-06-21T05:35:48.302Z,1008.70
2018-06-21T05:36:48.241Z,1008.75
2018-06-21T05:37:48.176Z,1008.82
2018-06-21T05:38:48.108Z,1008.78
2018-06-21T05:39:48.049Z,1008.69
2018-06-21T05:40:47.994Z,1008.58
2018-06-21T05:41:47.942Z,1008.56
2018-06-21T05:42:47.877Z,1008.59
2018-06-21T05:43:47.816Z,1008.67
2018-06-21T05:44:47.769Z,1008.64
2018-06-21T05:45:47.701Z,1008.62
2018-06-21T05:46:47.653Z,1008.63
2018-06-21T05:47:47.607Z,1008.68
2018-06-21T05:48:47.537Z,1008.76
2018-06-21T05:49:47.469Z,1008.71
2018-06-21T05:50:47.412Z,1008.65
2018-06-21T05:51:47.356Z,1008.61
2018-06-21T05:52:47.302Z,1008.56
2018-06-21T05:53:47.241Z,1008.52
2018-06-21T05:54:47.186Z,1008.53
2018-06-21T05:55:47.138Z,1008.54
2018-06-21T05:56:47.076Z,1008.54
2018-06-21T05:57:47.013Z,1008.56
2018-06-21T05:58:46.956Z,1008.61
2018-06-21T05:59:46.908Z,1008.59
2018-06-21T06:00:46.837Z,1008.60
2018-06-21T06:01:46.795Z,1008.64
2018-06-21T06:02:46.781Z,1008.65
2018-06-21T06:03:46.672Z,1008.62
2018-06-21T06:04:46.621Z,1008.59
2018-06-21T06:05:46.556Z,1008.57
2018-06-21T06:06:46.499Z,1008.54
2018-06-21T06:07:46.438Z,1008.52
2018-06-21T06:08:46.385Z,1008.46
2018-06-21T06:09:46.318Z,1008.39
2018-06-21T06:10:46.272Z,1008.40
2018-06-21T06:11:46.215Z,1008.46
2018-06-21T06:12:46.150Z,1008.49
2018-06-21T06:13:46.095Z,1008.42
2018-06-21T06:14:46.045Z,1008.36
2018-06-21T06:15:45.981Z,1008.29
2018-06-21T06:16:45.941Z,1008.31
2018-06-21T06:17:45.872Z,1008.31
2018-06-21T06:18:45.814Z,1008.30
2018-06-21T06:19:45.772Z,1008.38
2018-06-21T06:20:45.721Z,1008.39
2018-06-21T06:21:45.641Z,1008.39
2018-06-21T06:22:45.582Z,1008.36
2018-06-21T06:23:45.526Z,1008.32
2018-06-21T06:24:45.501Z,1008.23
2018-06-21T06:25:45.420Z,1008.20
2018-06-21T06:26:45.379Z,1008.22
2018-06-21T06:27:45.300Z,1008.33
2018-06-21T06:28:45.367Z,1008.32
2018-06-21T06:29:45.188Z,1008.34
2018-06-21T06:30:45.133Z,1008.37
2018-06-21T06:31:45.073Z,1008.30
2018-06-21T06:32:45.016Z,1008.26
2018-06-21T06:33:44.982Z,1008.12
2018-06-21T06:34:44.977Z,1008.12
2018-06-21T06:35:44.849Z,1008.13
2018-06-21T06:36:44.800Z,1008.15
2018-06-21T06:37:44.738Z,1008.12
2018-06-21T06:38:44.676Z,1008.09
2018-06-21T06:39:44.626Z,1008.10
2018-06-21T06:40:44.567Z,1008.04
2018-06-21T06:41:44.505Z,1008.13
2018-06-21T06:42:44.453Z,1008.22
2018-06-21T06:43:44.396Z,1008.18
2018-06-21T06:44:44.344Z,1008.16
2018-06-21T06:45:44.289Z,1008.08
2018-06-21T06:46:44.227Z,1008.07
2018-06-21T06:47:44.167Z,1008.12
2018-06-21T06:48:44.118Z,1008.15
2018-06-21T06:49:44.057Z,1008.10
2018-06-21T06:50:43.998Z,1007.99
2018-06-21T06:51:43.942Z,1007.91
2018-06-21T06:52:43.888Z,1007.95
2018-06-21T06:53:43.826Z,1007.99
2018-06-21T06:54:43.779Z,1007.97
2018-06-21T06:55:43.718Z,1007.99
2018-06-21T06:56:43.660Z,1008.00
2018-06-21T06:57:43.611Z,1007.94
2018-06-21T06:58:43.550Z,1007.96
2018-06-21T06:59:43.493Z,1008.04
2018-06-21T07:00:43.437Z,1008.03
2018-06-21T07:01:43.385Z,1008.05
2018-06-21T07:02:43.324Z,1008.13
2018-06-21T07:03:43.273Z,1008.10
2018-06-21T07:04:43.209Z,1008.05
2018-06-21T07:05:43.156Z,1008.03
2018-06-21T07:06:43.126Z,1007.90
2018-06-21T07:07:43.044Z,1007.76
2018-06-21T07:08:43.012Z,1007.70
2018-06-21T07:09:42.939Z,1007.65
2018-06-21T07:10:43.643Z,1007.61
2018-06-21T07:11:42.829Z,1007.65
2018-06-21T07:12:42.772Z,1007.73
2018-06-21T07:13:42.710Z,1007.80
2018-06-21T07:14:42.655Z,1007.74
2018-06-21T07:15:42.598Z,1007.64
2018-06-21T07:16:42.544Z,1007.56
2018-06-21T07:17:42.489Z,1007.49
2018-06-21T07:18:42.430Z,1007.43
2018-06-21T07:19:42.373Z,1007.46
2018-06-21T07:20:42.323Z,1007.49
2018-06-21T07:21:42.269Z,1007.47
2018-06-21T07:22:42.208Z,1007.48
2018-06-21T07:23:43.145Z,1007.50
2018-06-21T07:24:42.174Z,1007.50
2018-06-21T07:25:42.061Z,1007.50
2018-06-21T07:26:41.984Z,1007.49
2018-06-21T07:27:41.968Z,1007.50
2018-06-21T07:28:41.882Z,1007.53
2018-06-21T07:29:41.823Z,1007.62
2018-06-21T07:30:41.763Z,1007.52
2018-06-21T07:31:41.715Z,1007.51
2018-06-21T07:32:41.652Z,1007.46
2018-06-21T07:33:41.600Z,1007.40
2018-06-21T07:34:41.541Z,1007.36
2018-06-21T07:35:41.492Z,1007.44
2018-06-21T07:36:41.438Z,1007.45
2018-06-21T07:37:41.375Z,1007.37
2018-06-21T07:38:41.321Z,1007.27
2018-06-21T07:39:41.269Z,1007.24
2018-06-21T07:40:41.210Z,1007.20
2018-06-21T07:41:41.157Z,1007.15
2018-06-21T07:42:41.108Z,1007.21
2018-06-21T07:43:41.051Z,1007.20
2018-06-21T07:44:40.992Z,1007.14
2018-06-21T07:45:40.930Z,1007.11
2018-06-21T07:46:40.884Z,1007.15
2018-06-21T07:47:40.836Z,1007.17
2018-06-21T07:48:40.779Z,1007.18
2018-06-21T07:49:40.720Z,1007.15
2018-06-21T07:50:40.666Z,1007.09
2018-06-21T07:51:40.609Z,1007.13
2018-06-21T07:52:40.553Z,1007.06
2018-06-21T07:53:40.506Z,1007.02
2018-06-21T07:54:40.454Z,1006.94
2018-06-21T07:55:40.388Z,1007.02
2018-06-21T07:56:40.337Z,1006.94
2018-06-21T07:57:40.281Z,1006.90
2018-06-21T07:58:40.227Z,1006.88
2018-06-21T07:59:40.187Z,1006.96
2018-06-21T08:00:40.134Z,1007.03
2018-06-21T08:01:40.066Z,1006.96
2018-06-21T08:02:40.011Z,1006.93
2018-06-21T08:03:39.953Z,1006.85
2018-06-21T08:04:39.900Z,1006.84
2018-06-21T08:05:39.860Z,1006.93
2018-06-21T08:06:39.798Z,1006.95
2018-06-21T08:07:39.735Z,1006.96
2018-06-21T08:08:39.683Z,1006.97
2018-06-21T08:09:39.626Z,1006.91
2018-06-21T08:10:39.575Z,1006.95
2018-06-21T08:11:39.523Z,1007.04
2018-06-21T08:12:39.468Z,1006.96
2018-06-21T08:13:39.414Z,1006.86
2018-06-21T08:14:39.362Z,1006.77
2018-06-21T08:15:39.302Z,1006.67
2018-06-21T08:16:39.250Z,1006.68
2018-06-21T08:17:39.197Z,1006.67
2018-06-21T08:18:39.141Z,1006.59
2018-06-21T08:19:39.086Z,1006.60
2018-06-21T08:20:39.034Z,1006.58
2018-06-21T08:21:38.978Z,1006.58
2018-06-21T08:22:38.924Z,1006.54
2018-06-21T08:23:38.900Z,1006.51
2018-06-21T08:24:38.818Z,1006.52
2018-06-21T08:25:38.764Z,1006.49
2018-06-21T08:26:38.742Z,1006.50
2018-06-21T08:27:38.659Z,1006.49
2018-06-21T08:28:38.602Z,1006.46
2018-06-21T08:29:38.544Z,1006.40
2018-06-21T08:30:38.486Z,1006.37
2018-06-21T08:31:38.442Z,1006.32
2018-06-21T08:32:38.381Z,1006.23
2018-06-21T08:33:38.327Z,1006.19
2018-06-21T08:34:38.273Z,1006.21
2018-06-21T08:35:38.218Z,1006.16
2018-06-21T08:36:38.169Z,1006.19
2018-06-21T08:37:38.126Z,1006.13
2018-06-21T08:38:38.058Z,1006.22
2018-06-21T08:39:38.001Z,1006.20
2018-06-21T08:40:37.945Z,1006.27
2018-06-21T08:41:37.892Z,1006.23
2018-06-21T08:42:37.838Z,1006.20
2018-06-21T08:43:37.783Z,1006.11
2018-06-21T08:44:37.733Z,1006.09
2018-06-21T08:45:37.729Z,1006.08
2018-06-21T08:46:37.619Z,1006.06
2018-06-21T08:47:37.579Z,1006.03
2018-06-21T08:48:37.511Z,1006.01
2018-06-21T08:49:37.457Z,1006.04
2018-06-21T08:50:37.403Z,1005.97
2018-06-21T08:51:37.355Z,1005.92
2018-06-21T08:52:37.301Z,1005.98
2018-06-21T08:53:37.240Z,1005.95
2018-06-21T08:54:37.185Z,1005.95
2018-06-21T08:55:37.133Z,1005.89
2018-06-21T08:56:37.076Z,1005.85
2018-06-21T08:57:37.024Z,1005.85
2018-06-21T08:58:36.973Z,1005.82
2018-06-21T08:59:36.917Z,1005.76
2018-06-21T09:00:36.863Z,1005.64
2018-06-21T09:01:36.801Z,1005.60
2018-06-21T09:02:36.754Z,1005.58
2018-06-21T09:03:36.703Z,1005.57
2018-06-21T09:04:36.644Z,1005.54
2018-06-21T09:05:36.589Z,1005.47
2018-06-21T09:06:36.532Z,1005.49
2018-06-21T09:07:36.481Z,1005.43
2018-06-21T09:08:36.440Z,1005.44
2018-06-21T09:09:36.395Z,1005.50
2018-06-21T09:10:36.326Z,1005.52
2018-06-21T09:11:36.265Z,1005.56
2018-06-21T09:12:36.213Z,1005.56
2018-06-21T09:13:36.157Z,1005.68
2018-06-21T09:14:36.097Z,1005.61
2018-06-21T09:15:36.042Z,1005.68
2018-06-21T09:16:35.989Z,1005.75
2018-06-21T09:17:35.940Z,1005.70
2018-06-21T09:18:35.892Z,1005.73
2018-06-21T09:19:35.826Z,1005.70
2018-06-21T09:20:35.769Z,1005.77
2018-06-21T09:21:35.710Z,1005.73
2018-06-21T09:22:35.663Z,1005.73
2018-06-21T09:23:35.660Z,1005.70
2018-06-21T09:24:35.551Z,1005.64
2018-06-21T09:25:35.506Z,1005.63
2018-06-21T09:26:35.445Z,1005.58
2018-06-21T09:27:35.395Z,1005.56
2018-06-21T09:28:35.346Z,1005.57
2018-06-21T09:29:35.282Z,1005.54
2018-06-21T09:30:35.233Z,1005.47
2018-06-21T09:31:35.176Z,1005.67
2018-06-21T09:32:35.118Z,1005.61
2018-06-21T09:33:35.067Z,1005.73
2018-06-21T09:34:35.013Z,1005.67
2018-06-21T09:35:34.957Z,1005.76
2018-06-21T09:36:34.907Z,1005.82
2018-06-21T09:37:34.862Z,1005.73
2018-06-21T09:38:34.807Z,1005.70
2018-06-21T09:39:34.742Z,1005.68
2018-06-21T09:40:34.690Z,1005.74
2018-06-21T09:41:34.636Z,1005.68
2018-06-21T09:42:34.588Z,1005.72
2018-06-21T09:43:34.533Z,1005.55
2018-06-21T09:44:34.473Z,1005.64
2018-06-21T09:45:34.438Z,1005.68
2018-06-21T09:46:34.490Z,1005.60
2018-06-21T09:47:34.336Z,1005.57
2018-06-21T09:48:34.262Z,1005.58
2018-06-21T09:49:34.217Z,1005.53
2018-06-21T09:50:34.154Z,1005.49
2018-06-21T09:51:34.101Z,1005.65
2018-06-21T09:52:34.099Z,1005.76
2018-06-21T09:53:33.992Z,1005.87
2018-06-21T09:54:33.944Z,1005.86
2018-06-21T09:55:33.898Z,1005.94
2018-06-21T09:56:33.831Z,1005.85
2018-06-21T09:57:33.774Z,1005.87
2018-06-21T09:58:33.726Z,1005.93
2018-06-21T09:59:33.674Z,1005.82
2018-06-21T10:00:33.624Z,1005.69
2018-06-21T10:01:33.572Z,1005.69
2018-06-21T10:02:33.517Z,1005.79
2018-06-21T10:03:33.465Z,1005.71
2018-06-21T10:04:33.411Z,1005.55
2018-06-21T10:05:33.358Z,1005.66
2018-06-21T10:06:33.305Z,1005.56
2018-06-21T10:07:33.250Z,1005.59
2018-06-21T10:08:33.208Z,1005.57
2018-06-21T10:09:33.149Z,1005.59
2018-06-21T10:10:33.095Z,1005.43
2018-06-21T10:11:33.044Z,1005.18
2018-06-21T10:12:32.990Z,1005.10
2018-06-21T10:13:32.936Z,1004.96
2018-06-21T10:14:32.905Z,1004.77
2018-06-21T10:15:32.833Z,1004.68
2018-06-21T10:16:32.782Z,1004.57
2018-06-21T10:17:32.724Z,1004.51
2018-06-21T10:18:32.673Z,1004.52
2018-06-21T10:19:32.618Z,1004.86
2018-06-21T10:20:32.608Z,1004.84
2018-06-21T10:21:32.514Z,1005.16
2018-06-21T10:22:32.463Z,1005.15
2018-06-21T10:23:32.420Z,1005.26
2018-06-21T10:24:32.359Z,1005.34
2018-06-21T10:25:32.299Z,1005.29
2018-06-21T10:26:32.248Z,1005.35
2018-06-21T10:27:32.191Z,1005.39
2018-06-21T10:28:32.136Z,1005.52
2018-06-21T10:29:32.086Z,1005.62
2018-06-21T10:30:32.029Z,1005.75
2018-06-21T10:31:31.973Z,1005.73
2018-06-21T10:32:31.922Z,1006.18
2018-06-21T10:33:31.863Z,1006.04
2018-06-21T10:34:31.815Z,1006.10
2018-06-21T10:35:31.767Z,1006.08
2018-06-21T10:36:31.707Z,1006.06
2018-06-21T10:37:31.647Z,1006.12
2018-06-21T10:38:31.583Z,1006.22
2018-06-21T10:39:31.541Z,1006.40
2018-06-21T10:40:31.477Z,1006.39
2018-06-21T10:41:31.422Z,1006.29
2018-06-21T10:42:31.379Z,1006.30
2018-06-21T10:43:31.310Z,1006.58
2018-06-21T10:44:31.252Z,1006.59
2018-06-21T10:45:31.204Z,1006.75
2018-06-21T10:46:31.154Z,1006.91
2018-06-21T10:47:31.085Z,1007.12
2018-06-21T10:48:31.024Z,1007.55
2018-06-21T10:49:30.967Z,1007.67
2018-06-21T10:50:30.908Z,1007.56
2018-06-21T10:51:30.860Z,1007.42
2018-06-21T10:52:30.793Z,1007.69
2018-06-21T10:53:30.737Z,1007.72
2018-06-21T10:54:30.679Z,1007.83
2018-06-21T10:55:30.629Z,1007.92
2018-06-21T10:56:30.562Z,1007.86
2018-06-21T10:57:30.503Z,1008.12
2018-06-21T10:58:30.453Z,1008.30
2018-06-21T10:59:30.398Z,1008.50
2018-06-21T11:00:30.356Z,1008.35
2018-06-21T11:01:30.273Z,1008.46
2018-06-21T11:02:30.217Z,1008.55
2018-06-21T11:03:30.154Z,1008.49
2018-06-21T11:04:30.134Z,1008.43
2018-06-21T11:05:30.050Z,1008.40
2018-06-21T11:06:29.992Z,1008.41
2018-06-21T11:07:29.935Z,1008.45
2018-06-21T11:08:29.875Z,1008.49
2018-06-21T11:09:29.820Z,1008.76
2018-06-21T11:10:29.769Z,1008.67
2018-06-21T11:11:29.706Z,1008.62
2018-06-21T11:12:29.653Z,1008.79
2018-06-21T11:13:29.595Z,1008.52
2018-06-21T11:14:29.543Z,1008.24
2018-06-21T11:15:29.513Z,1008.10
2018-06-21T11:16:29.429Z,1008.30
2018-06-21T11:17:29.369Z,1008.43
2018-06-21T11:18:29.317Z,1008.36
2018-06-21T11:19:29.262Z,1008.33
2018-06-21T11:20:29.203Z,1008.58
2018-06-21T11:21:29.166Z,1008.60
2018-06-21T11:22:29.095Z,1008.48
2018-06-21T11:23:29.040Z,1008.49
2018-06-21T11:24:28.994Z,1008.57
2018-06-21T11:25:28.925Z,1008.71
2018-06-21T11:26:28.874Z,1008.57
2018-06-21T11:27:28.811Z,1008.67
2018-06-21T11:28:28.756Z,1008.63
2018-06-21T11:29:28.698Z,1008.53
2018-06-21T11:30:28.645Z,1008.64
2018-06-21T11:31:28.583Z,1008.66
2018-06-21T11:32:28.535Z,1008.53
2018-06-21T11:33:28.472Z,1008.54
2018-06-21T11:34:28.413Z,1008.58
2018-06-21T11:35:28.356Z,1008.58
2018-06-21T11:36:28.303Z,1008.47
2018-06-21T11:37:28.244Z,1008.34
2018-06-21T11:38:28.193Z,1008.34
2018-06-21T11:39:28.131Z,1008.27
2018-06-21T11:40:28.075Z,1008.23
2018-06-21T11:41:28.021Z,1008.14
2018-06-21T11:42:27.957Z,1008.15
2018-06-21T11:43:27.906Z,1008.21
2018-06-21T11:44:27.853Z,1008.22
2018-06-21T11:45:27.803Z,1008.12
2018-06-21T11:46:27.742Z,1008.17
2018-06-21T11:47:27.674Z,1008.24
2018-06-21T11:48:27.619Z,1008.32
2018-06-21T11:49:27.565Z,1008.48
2018-06-21T11:50:27.508Z,1008.48
2018-06-21T11:51:27.460Z,1008.49
2018-06-21T11:52:27.409Z,1008.55
2018-06-21T11:53:27.330Z,1008.62
2018-06-21T11:54:27.278Z,1008.63
2018-06-21T11:55:27.212Z,1008.68
2018-06-21T11:56:27.169Z,1008.82
2018-06-21T11:57:27.103Z,1008.87
2018-06-21T11:58:27.042Z,1008.90
2018-06-21T11:59:26.986Z,1008.97
2018-06-21T12:00:26.924Z,1009.03
2018-06-21T12:01:26.866Z,1009.11
2018-06-21T12:02:26.812Z,1009.18
2018-06-21T12:03:26.760Z,1009.11
2018-06-21T12:04:26.695Z,1009.13